NKS357 KFLL-KJAX
Flight info
| Callsign | NKS357 |
|---|---|
| Flight time | N/A |
| Altitude | 30000 |
| Route | FRSBE2 STYMY ORL HAINY QUBEN1 |
| Aircraft | A20N/M-SDE2E3FGHIRWXY/LB1 |
Departure
| Time | 2026-05-03 22:18 |
|---|---|
| Airport | Fort Lauderdale Hollywood International Airport (KFLL) |
Arrival
| Time | N/A |
|---|---|
| Airport | Jacksonville International Airport (KJAX) |
| Time | Latitude | Longitude | Altitude | Speed | Heading |
|---|---|---|---|---|---|
| 2026-05-03 20:57 | 26.06889 | -80.14551 | 21 ft | 0 kts | 22° |
| 2026-05-03 21:10 | 26.06873 | -80.14558 | 25 ft | 4 kts | 27° |
| 2026-05-03 21:10 | 26.06851 | -80.14575 | 21 ft | 4 kts | 41° |
| 2026-05-03 21:10 | 26.06889 | -80.14555 | 21 ft | 0 kts | 25° |
| 2026-05-03 21:10 | 26.06881 | -80.14470 | 20 ft | 0 kts | 354° |
| 2026-05-03 21:12 | 26.06876 | -80.14470 | 20 ft | 3 kts | 355° |
| 2026-05-03 21:13 | 26.06849 | -80.14468 | 20 ft | 4 kts | 358° |
| 2026-05-03 21:13 | 26.06827 | -80.14466 | 21 ft | 4 kts | 301° |
| 2026-05-03 21:13 | 26.06821 | -80.14479 | 20 ft | 0 kts | 242° |
| 2026-05-03 21:18 | 26.06818 | -80.14484 | 20 ft | 1 kts | 242° |
| 2026-05-03 21:19 | 26.06814 | -80.14496 | 20 ft | 2 kts | 252° |
| 2026-05-03 21:19 | 26.06808 | -80.14520 | 19 ft | 4 kts | 252° |
| 2026-05-03 21:19 | 26.06801 | -80.14553 | 19 ft | 1 kts | 271° |
| 2026-05-03 21:19 | 26.06802 | -80.14557 | 20 ft | 4 kts | 280° |
| 2026-05-03 21:20 | 26.06806 | -80.14570 | 21 ft | 0 kts | 298° |
| 2026-05-03 21:20 | 26.06802 | -80.14590 | 20 ft | 4 kts | 227° |
| 2026-05-03 21:20 | 26.06782 | -80.14614 | 19 ft | 3 kts | 239° |
| 2026-05-03 21:21 | 26.06769 | -80.14653 | 19 ft | 15 kts | 262° |
| 2026-05-03 21:21 | 26.06767 | -80.14773 | 23 ft | 15 kts | 270° |
| 2026-05-03 21:21 | 26.06767 | -80.14880 | 25 ft | 13 kts | 270° |
| 2026-05-03 21:21 | 26.06768 | -80.14980 | 25 ft | 13 kts | 270° |
| 2026-05-03 21:22 | 26.06769 | -80.15083 | 26 ft | 13 kts | 270° |
| 2026-05-03 21:22 | 26.06772 | -80.15101 | 30 ft | 0 kts | 293° |
| 2026-05-03 21:22 | 26.06790 | -80.15123 | 26 ft | 7 kts | 327° |
| 2026-05-03 21:22 | 26.06813 | -80.15130 | 26 ft | 2 kts | 356° |
| 2026-05-03 21:23 | 26.06846 | -80.15130 | 26 ft | 7 kts | 360° |
| 2026-05-03 21:23 | 26.06896 | -80.15131 | 27 ft | 7 kts | 360° |
| 2026-05-03 21:23 | 26.06992 | -80.15129 | 27 ft | 18 kts | 2° |
| 2026-05-03 21:23 | 26.07119 | -80.15129 | 28 ft | 19 kts | 360° |
| 2026-05-03 21:24 | 26.07260 | -80.15127 | 25 ft | 21 kts | 1° |
| 2026-05-03 21:24 | 26.07341 | -80.15127 | 25 ft | 0 kts | 360° |
| 2026-05-03 21:24 | 26.07342 | -80.15127 | 25 ft | 0 kts | 360° |
| 2026-05-03 21:24 | 26.07363 | -80.15127 | 25 ft | 7 kts | 359° |
| 2026-05-03 21:25 | 26.07407 | -80.15126 | 24 ft | 6 kts | 0° |
| 2026-05-03 21:25 | 26.07426 | -80.15126 | 24 ft | 0 kts | 1° |
| 2026-05-03 21:25 | 26.07434 | -80.15126 | 23 ft | 0 kts | 357° |
| 2026-05-03 21:33 | 26.07469 | -80.15137 | 22 ft | 9 kts | 325° |
| 2026-05-03 21:33 | 26.07491 | -80.15202 | 21 ft | 11 kts | 271° |
| 2026-05-03 21:34 | 26.07492 | -80.15385 | 19 ft | 24 kts | 270° |
| 2026-05-03 21:34 | 26.07492 | -80.15568 | 22 ft | 23 kts | 269° |
| 2026-05-03 21:34 | 26.07494 | -80.15743 | 23 ft | 23 kts | 270° |
| 2026-05-03 21:34 | 26.07495 | -80.15914 | 25 ft | 21 kts | 270° |
| 2026-05-03 21:35 | 26.07495 | -80.16073 | 28 ft | 20 kts | 271° |
| 2026-05-03 21:35 | 26.07496 | -80.16211 | 28 ft | 0 kts | 270° |
| 2026-05-03 21:39 | 26.07496 | -80.16231 | 28 ft | 0 kts | 270° |
| 2026-05-03 21:40 | 26.07496 | -80.16254 | 28 ft | 0 kts | 271° |
| 2026-05-03 21:41 | 26.07496 | -80.16257 | 27 ft | 1 kts | 269° |
| 2026-05-03 21:41 | 26.07496 | -80.16260 | 27 ft | 0 kts | 269° |
| 2026-05-03 21:42 | 26.07496 | -80.16261 | 27 ft | 0 kts | 269° |
| 2026-05-03 21:42 | 26.07496 | -80.16267 | 27 ft | 0 kts | 269° |
| 2026-05-03 21:42 | 26.07496 | -80.16252 | 28 ft | 0 kts | 269° |
| 2026-05-03 21:42 | 26.07496 | -80.16254 | 27 ft | 1 kts | 270° |
| 2026-05-03 21:43 | 26.07496 | -80.16257 | 27 ft | 0 kts | 272° |
| 2026-05-03 21:44 | 26.07496 | -80.16260 | 27 ft | 1 kts | 272° |
| 2026-05-03 21:45 | 26.07497 | -80.16299 | 27 ft | 0 kts | 269° |
| 2026-05-03 21:46 | 26.07496 | -80.16310 | 27 ft | 4 kts | 268° |
| 2026-05-03 21:46 | 26.07496 | -80.16321 | 27 ft | 1 kts | 268° |
| 2026-05-03 21:46 | 26.07496 | -80.16324 | 27 ft | 1 kts | 268° |
| 2026-05-03 21:47 | 26.07497 | -80.16349 | 27 ft | 9 kts | 271° |
| 2026-05-03 21:47 | 26.07497 | -80.16408 | 27 ft | 0 kts | 270° |
| 2026-05-03 21:47 | 26.07497 | -80.16413 | 27 ft | 5 kts | 270° |
| 2026-05-03 21:48 | 26.07498 | -80.16458 | 27 ft | 8 kts | 270° |
| 2026-05-03 21:48 | 26.07497 | -80.16480 | 28 ft | 0 kts | 270° |
| 2026-05-03 21:49 | 26.07498 | -80.16494 | 28 ft | 10 kts | 270° |
| 2026-05-03 21:49 | 26.07498 | -80.16529 | 28 ft | 0 kts | 270° |
| 2026-05-03 21:54 | 26.07498 | -80.16530 | 28 ft | 1 kts | 270° |
| 2026-05-03 21:54 | 26.07498 | -80.16540 | 28 ft | 2 kts | 270° |
| 2026-05-03 21:54 | 26.07498 | -80.16557 | 27 ft | 3 kts | 270° |
| 2026-05-03 21:54 | 26.07499 | -80.16581 | 27 ft | 3 kts | 274° |
| 2026-05-03 21:55 | 26.07499 | -80.16589 | 27 ft | 0 kts | 274° |
| 2026-05-03 21:55 | 26.07499 | -80.16591 | 27 ft | 0 kts | 270° |
| 2026-05-03 22:02 | 26.07499 | -80.16599 | 32 ft | 0 kts | 275° |
| 2026-05-03 22:05 | 26.07514 | -80.16631 | 25 ft | 9 kts | 314° |
| 2026-05-03 22:06 | 26.07538 | -80.16642 | 27 ft | 0 kts | 351° |
| 2026-05-03 22:06 | 26.07541 | -80.16642 | 27 ft | 4 kts | 353° |
| 2026-05-03 22:06 | 26.07542 | -80.16642 | 27 ft | 0 kts | 353° |
| 2026-05-03 22:08 | 26.07550 | -80.16643 | 30 ft | 6 kts | 359° |
| 2026-05-03 22:09 | 26.07584 | -80.16643 | 27 ft | 0 kts | 359° |
| 2026-05-03 22:09 | 26.07585 | -80.16643 | 27 ft | 1 kts | 359° |
| 2026-05-03 22:10 | 26.07597 | -80.16644 | 25 ft | 0 kts | 359° |
| 2026-05-03 22:13 | 26.07598 | -80.16644 | 25 ft | 1 kts | 359° |
| 2026-05-03 22:13 | 26.07606 | -80.16644 | 25 ft | 0 kts | 359° |
| 2026-05-03 22:14 | 26.07607 | -80.16644 | 25 ft | 0 kts | 359° |
| 2026-05-03 22:16 | 26.07608 | -80.16644 | 25 ft | 0 kts | 359° |
| 2026-05-03 22:16 | 26.07609 | -80.16644 | 25 ft | 1 kts | 359° |
| 2026-05-03 22:16 | 26.07673 | -80.16633 | 25 ft | 9 kts | 31° |
| 2026-05-03 22:17 | 26.07694 | -80.16586 | 29 ft | 14 kts | 83° |
| 2026-05-03 22:17 | 26.07694 | -80.16576 | 29 ft | 0 kts | 90° |
| 2026-05-03 22:17 | 26.07694 | -80.16505 | 27 ft | 41 kts | 90° |
| 2026-05-03 22:18 | 26.07693 | -80.15840 | 26 ft | 133 kts | 90° |
| 2026-05-03 22:18 | 26.07686 | -80.14569 | 389 ft | 177 kts | 88° |
| 2026-05-03 22:18 | 26.07685 | -80.13147 | 1393 ft | 184 kts | 89° |
| 2026-05-03 22:18 | 26.07679 | -80.11657 | 2220 ft | 208 kts | 89° |
| 2026-05-03 22:19 | 26.07667 | -80.09928 | 2706 ft | 244 kts | 90° |
| 2026-05-03 22:19 | 26.07644 | -80.07944 | 3308 ft | 267 kts | 92° |
| 2026-05-03 22:19 | 26.07628 | -80.05834 | 3806 ft | 275 kts | 87° |
| 2026-05-03 22:19 | 26.08366 | -80.03908 | 3949 ft | 282 kts | 45° |
| 2026-05-03 22:20 | 26.10046 | -80.02650 | 4259 ft | 302 kts | 26° |
| 2026-05-03 22:20 | 26.12016 | -80.01859 | 5190 ft | 299 kts | 8° |
| 2026-05-03 22:20 | 26.14039 | -80.01784 | 6454 ft | 284 kts | 347° |
| 2026-05-03 22:20 | 26.15782 | -80.02642 | 7466 ft | 273 kts | 315° |
| 2026-05-03 22:21 | 26.16871 | -80.04312 | 8406 ft | 267 kts | 287° |
| 2026-05-03 22:21 | 26.17352 | -80.06307 | 9370 ft | 269 kts | 286° |
| 2026-05-03 22:21 | 26.18320 | -80.08124 | 10281 ft | 280 kts | 307° |
| 2026-05-03 22:21 | 26.19716 | -80.09765 | 10735 ft | 305 kts | 312° |
| 2026-05-03 22:22 | 26.21305 | -80.11458 | 11164 ft | 324 kts | 313° |
| 2026-05-03 22:22 | 26.22966 | -80.13214 | 11862 ft | 333 kts | 313° |
| 2026-05-03 22:22 | 26.24622 | -80.15000 | 12728 ft | 334 kts | 310° |
| 2026-05-03 22:22 | 26.26100 | -80.17028 | 13608 ft | 335 kts | 301° |
| 2026-05-03 22:23 | 26.27372 | -80.19169 | 14506 ft | 336 kts | 299° |
| 2026-05-03 22:23 | 26.28644 | -80.21405 | 15411 ft | 338 kts | 298° |
| 2026-05-03 22:23 | 26.29902 | -80.23632 | 16285 ft | 341 kts | 298° |
| 2026-05-03 22:23 | 26.31175 | -80.25883 | 17074 ft | 346 kts | 298° |
| 2026-05-03 22:24 | 26.32464 | -80.28161 | 17842 ft | 350 kts | 298° |
| 2026-05-03 22:24 | 26.33753 | -80.30436 | 18551 ft | 353 kts | 297° |
| 2026-05-03 22:24 | 26.35071 | -80.32762 | 19183 ft | 356 kts | 297° |
| 2026-05-03 22:24 | 26.36398 | -80.35105 | 19829 ft | 359 kts | 297° |
| 2026-05-03 22:25 | 26.37740 | -80.37474 | 20482 ft | 362 kts | 297° |
| 2026-05-03 22:25 | 26.39092 | -80.39862 | 21113 ft | 365 kts | 297° |
| 2026-05-03 22:25 | 26.40455 | -80.42271 | 21764 ft | 369 kts | 297° |
| 2026-05-03 22:25 | 26.41827 | -80.44698 | 22425 ft | 372 kts | 296° |
| 2026-05-03 22:26 | 26.43212 | -80.47148 | 23110 ft | 375 kts | 296° |
| 2026-05-03 22:26 | 26.44611 | -80.49625 | 23728 ft | 379 kts | 296° |
| 2026-05-03 22:26 | 26.46095 | -80.52081 | 24276 ft | 385 kts | 301° |
| 2026-05-03 22:26 | 26.47900 | -80.54345 | 24733 ft | 398 kts | 309° |
| 2026-05-03 22:27 | 26.50137 | -80.56298 | 24948 ft | 420 kts | 320° |
| 2026-05-03 22:27 | 26.52816 | -80.57790 | 25142 ft | 442 kts | 332° |
| 2026-05-03 22:27 | 26.55805 | -80.58866 | 25338 ft | 457 kts | 336° |
| 2026-05-03 22:27 | 26.58902 | -80.59837 | 25518 ft | 468 kts | 337° |
| 2026-05-03 22:28 | 26.62073 | -80.60818 | 25757 ft | 475 kts | 337° |
| 2026-05-03 22:28 | 26.65263 | -80.61809 | 26174 ft | 478 kts | 337° |
| 2026-05-03 22:28 | 26.68496 | -80.62825 | 26436 ft | 486 kts | 336° |
| 2026-05-03 22:28 | 26.71765 | -80.63858 | 26721 ft | 491 kts | 336° |
| 2026-05-03 22:29 | 26.73946 | -80.64549 | 27029 ft | 492 kts | 336° |
| 2026-05-03 22:29 | 26.77241 | -80.65592 | 27621 ft | 491 kts | 336° |
| 2026-05-03 22:29 | 26.80521 | -80.66633 | 28222 ft | 490 kts | 336° |
| 2026-05-03 22:29 | 26.83791 | -80.67672 | 28797 ft | 488 kts | 336° |
| 2026-05-03 22:30 | 26.87055 | -80.68712 | 29397 ft | 487 kts | 336° |
| 2026-05-03 22:30 | 26.90311 | -80.69752 | 29849 ft | 487 kts | 335° |
| 2026-05-03 22:30 | 26.93552 | -80.70861 | 30046 ft | 486 kts | 334° |
| 2026-05-03 22:31 | 26.99936 | -80.73274 | 30053 ft | 484 kts | 332° |
| 2026-05-03 22:31 | 27.06283 | -80.75761 | 30049 ft | 484 kts | 332° |
| 2026-05-03 22:32 | 27.12649 | -80.78238 | 30045 ft | 484 kts | 333° |